sensor_id;sensor_type;location;lat;lon;timestamp;temperature;humidity
16999;DHT22;10211;49.476;11.010;2022-07-10T00:00:57;15.60;99.90
16999;DHT22;10211;49.476;11.010;2022-07-10T00:03:25;15.40;99.90
16999;DHT22;10211;49.476;11.010;2022-07-10T00:05:51;15.30;99.90
16999;DHT22;10211;49.476;11.010;2022-07-10T00:08:18;15.30;99.90
16999;DHT22;10211;49.476;11.010;2022-07-10T00:10:45;15.30;99.90
16999;DHT22;10211;49.476;11.010;2022-07-10T00:13:11;15.30;99.90
16999;DHT22;10211;49.476;11.010;2022-07-10T00:15:38;15.70;99.90
16999;DHT22;10211;49.476;11.010;2022-07-10T00:18:05;15.70;99.90
16999;DHT22;10211;49.476;11.010;2022-07-10T00:20:33;15.20;99.90
16999;DHT22;10211;49.476;11.010;2022-07-10T00:23:00;15.30;99.90
16999;DHT22;10211;49.476;11.010;2022-07-10T00:25:27;15.20;99.90
16999;DHT22;10211;49.476;11.010;2022-07-10T00:27:54;15.10;99.90
16999;DHT22;10211;49.476;11.010;2022-07-10T00:30:21;15.60;99.90
16999;DHT22;10211;49.476;11.010;2022-07-10T00:32:47;15.00;99.90
16999;DHT22;10211;49.476;11.010;2022-07-10T00:35:14;15.00;99.90
16999;DHT22;10211;49.476;11.010;2022-07-10T00:37:42;15.00;99.90
16999;DHT22;10211;49.476;11.010;2022-07-10T00:40:09;15.00;99.90
16999;DHT22;10211;49.476;11.010;2022-07-10T00:42:36;15.00;99.90
16999;DHT22;10211;49.476;11.010;2022-07-10T00:45:03;14.90;99.90
16999;DHT22;10211;49.476;11.010;2022-07-10T00:47:30;14.90;99.90
16999;DHT22;10211;49.476;11.010;2022-07-10T00:49:57;15.20;99.90
16999;DHT22;10211;49.476;11.010;2022-07-10T00:52:24;14.80;99.90
16999;DHT22;10211;49.476;11.010;2022-07-10T00:54:52;14.80;99.90
16999;DHT22;10211;49.476;11.010;2022-07-10T00:57:20;14.80;99.90
16999;DHT22;10211;49.476;11.010;2022-07-10T00:59:49;14.80;99.90
16999;DHT22;10211;49.476;11.010;2022-07-10T01:02:16;14.80;99.90
16999;DHT22;10211;49.476;11.010;2022-07-10T01:04:43;14.80;99.90
16999;DHT22;10211;49.476;11.010;2022-07-10T01:07:10;14.80;99.90
16999;DHT22;10211;49.476;11.010;2022-07-10T01:09:37;14.80;99.90
16999;DHT22;10211;49.476;11.010;2022-07-10T01:12:06;14.80;99.90
16999;DHT22;10211;49.476;11.010;2022-07-10T01:14:33;14.80;99.90
16999;DHT22;10211;49.476;11.010;2022-07-10T01:17:01;14.80;99.90
16999;DHT22;10211;49.476;11.010;2022-07-10T01:19:27;14.80;99.90
16999;DHT22;10211;49.476;11.010;2022-07-10T01:21:56;14.70;99.90
16999;DHT22;10211;49.476;11.010;2022-07-10T01:24:22;14.70;99.90
16999;DHT22;10211;49.476;11.010;2022-07-10T01:26:49;14.60;99.90
16999;DHT22;10211;49.476;11.010;2022-07-10T01:29:16;14.60;99.90
16999;DHT22;10211;49.476;11.010;2022-07-10T01:31:43;14.60;99.90
16999;DHT22;10211;49.476;11.010;2022-07-10T01:34:11;14.60;99.90
16999;DHT22;10211;49.476;11.010;2022-07-10T01:36:38;14.60;99.90
16999;DHT22;10211;49.476;11.010;2022-07-10T01:39:06;14.60;99.90
16999;DHT22;10211;49.476;11.010;2022-07-10T01:41:33;14.60;99.90
16999;DHT22;10211;49.476;11.010;2022-07-10T01:44:00;14.70;99.90
16999;DHT22;10211;49.476;11.010;2022-07-10T01:46:27;14.60;99.90
16999;DHT22;10211;49.476;11.010;2022-07-10T01:48:54;14.60;99.90
16999;DHT22;10211;49.476;11.010;2022-07-10T01:51:21;14.60;99.90
16999;DHT22;10211;49.476;11.010;2022-07-10T01:53:48;14.60;99.90
16999;DHT22;10211;49.476;11.010;2022-07-10T01:56:17;14.60;99.90
16999;DHT22;10211;49.476;11.010;2022-07-10T01:58:43;14.50;99.90
16999;DHT22;10211;49.476;11.010;2022-07-10T02:01:11;14.50;99.90
16999;DHT22;10211;49.476;11.010;2022-07-10T02:03:38;14.50;99.90
16999;DHT22;10211;49.476;11.010;2022-07-10T02:06:22;14.50;99.90
16999;DHT22;10211;49.476;11.010;2022-07-10T02:08:49;14.40;99.90
16999;DHT22;10211;49.476;11.010;2022-07-10T02:11:18;14.40;99.90
16999;DHT22;10211;49.476;11.010;2022-07-10T02:13:45;14.50;99.90
16999;DHT22;10211;49.476;11.010;2022-07-10T02:16:12;14.50;99.90
16999;DHT22;10211;49.476;11.010;2022-07-10T02:18:38;14.60;99.90
16999;DHT22;10211;49.476;11.010;2022-07-10T02:21:06;14.60;99.90
16999;DHT22;10211;49.476;11.010;2022-07-10T02:23:33;14.70;99.90
16999;DHT22;10211;49.476;11.010;2022-07-10T02:26:00;14.70;99.90
16999;DHT22;10211;49.476;11.010;2022-07-10T02:28:28;14.90;99.90
16999;DHT22;10211;49.476;11.010;2022-07-10T02:30:55;14.70;99.90
16999;DHT22;10211;49.476;11.010;2022-07-10T02:33:22;14.70;99.90
16999;DHT22;10211;49.476;11.010;2022-07-10T02:35:49;14.80;99.90
16999;DHT22;10211;49.476;11.010;2022-07-10T02:38:16;14.80;99.90
16999;DHT22;10211;49.476;11.010;2022-07-10T02:40:42;14.70;99.90
16999;DHT22;10211;49.476;11.010;2022-07-10T02:43:09;14.70;99.90
16999;DHT22;10211;49.476;11.010;2022-07-10T02:45:37;14.70;99.90
16999;DHT22;10211;49.476;11.010;2022-07-10T02:48:04;14.70;99.90
16999;DHT22;10211;49.476;11.010;2022-07-10T02:50:31;14.60;99.90
16999;DHT22;10211;49.476;11.010;2022-07-10T02:52:58;14.60;99.90
16999;DHT22;10211;49.476;11.010;2022-07-10T02:55:25;14.50;99.90
16999;DHT22;10211;49.476;11.010;2022-07-10T02:57:52;14.50;99.90
16999;DHT22;10211;49.476;11.010;2022-07-10T03:00:18;14.40;99.90
16999;DHT22;10211;49.476;11.010;2022-07-10T03:02:47;14.40;99.90
16999;DHT22;10211;49.476;11.010;2022-07-10T03:05:13;14.30;99.90
16999;DHT22;10211;49.476;11.010;2022-07-10T03:07:41;14.30;99.90
16999;DHT22;10211;49.476;11.010;2022-07-10T03:10:08;14.20;99.90
16999;DHT22;10211;49.476;11.010;2022-07-10T03:12:35;14.20;99.90
16999;DHT22;10211;49.476;11.010;2022-07-10T03:15:03;14.20;99.90
16999;DHT22;10211;49.476;11.010;2022-07-10T03:17:30;14.10;99.90
16999;DHT22;10211;49.476;11.010;2022-07-10T03:19:58;14.40;99.90
16999;DHT22;10211;49.476;11.010;2022-07-10T03:22:25;14.10;99.90
16999;DHT22;10211;49.476;11.010;2022-07-10T03:24:52;14.00;99.90
16999;DHT22;10211;49.476;11.010;2022-07-10T03:27:19;14.00;99.90
16999;DHT22;10211;49.476;11.010;2022-07-10T03:29:45;14.00;99.90
16999;DHT22;10211;49.476;11.010;2022-07-10T03:32:12;13.90;99.90
16999;DHT22;10211;49.476;11.010;2022-07-10T03:34:39;13.80;99.90
16999;DHT22;10211;49.476;11.010;2022-07-10T03:37:07;13.80;99.90
16999;DHT22;10211;49.476;11.010;2022-07-10T03:39:34;13.80;99.90
16999;DHT22;10211;49.476;11.010;2022-07-10T03:42:01;13.70;99.90
16999;DHT22;10211;49.476;11.010;2022-07-10T03:44:28;13.80;99.90
16999;DHT22;10211;49.476;11.010;2022-07-10T03:46:54;13.80;99.90
16999;DHT22;10211;49.476;11.010;2022-07-10T03:49:23;13.90;99.90
16999;DHT22;10211;49.476;11.010;2022-07-10T03:51:50;14.00;99.90
16999;DHT22;10211;49.476;11.010;2022-07-10T03:54:18;14.00;99.90
16999;DHT22;10211;49.476;11.010;2022-07-10T03:56:44;14.10;99.90
16999;DHT22;10211;49.476;11.010;2022-07-10T03:59:29;14.10;99.90
16999;DHT22;10211;49.476;11.010;2022-07-10T04:01:55;14.10;99.90
16999;DHT22;10211;49.476;11.010;2022-07-10T04:04:22;14.10;99.90
16999;DHT22;10211;49.476;11.010;2022-07-10T04:06:49;14.20;99.90
16999;DHT22;10211;49.476;11.010;2022-07-10T04:09:16;14.20;99.90
16999;DHT22;10211;49.476;11.010;2022-07-10T04:11:44;14.20;99.90
16999;DHT22;10211;49.476;11.010;2022-07-10T04:14:11;14.20;99.90
16999;DHT22;10211;49.476;11.010;2022-07-10T04:16:37;14.20;99.90
16999;DHT22;10211;49.476;11.010;2022-07-10T04:19:04;14.00;99.90
16999;DHT22;10211;49.476;11.010;2022-07-10T04:21:31;13.90;99.90
16999;DHT22;10211;49.476;11.010;2022-07-10T04:23:58;13.80;99.90
16999;DHT22;10211;49.476;11.010;2022-07-10T04:26:25;13.70;99.90
16999;DHT22;10211;49.476;11.010;2022-07-10T04:28:53;13.70;99.90
16999;DHT22;10211;49.476;11.010;2022-07-10T04:31:19;13.70;99.90
16999;DHT22;10211;49.476;11.010;2022-07-10T04:33:46;13.90;99.90
16999;DHT22;10211;49.476;11.010;2022-07-10T04:36:13;13.70;99.90
16999;DHT22;10211;49.476;11.010;2022-07-10T04:38:40;13.70;99.90
16999;DHT22;10211;49.476;11.010;2022-07-10T04:41:06;13.80;99.90
16999;DHT22;10211;49.476;11.010;2022-07-10T04:43:33;13.70;99.90
16999;DHT22;10211;49.476;11.010;2022-07-10T04:46:01;13.70;99.90
16999;DHT22;10211;49.476;11.010;2022-07-10T04:48:28;13.70;99.90
16999;DHT22;10211;49.476;11.010;2022-07-10T04:50:55;13.70;99.90
16999;DHT22;10211;49.476;11.010;2022-07-10T04:53:22;13.80;99.90
16999;DHT22;10211;49.476;11.010;2022-07-10T04:55:48;13.90;99.90
16999;DHT22;10211;49.476;11.010;2022-07-10T04:58:15;13.90;99.90
16999;DHT22;10211;49.476;11.010;2022-07-10T05:00:42;13.90;99.90
16999;DHT22;10211;49.476;11.010;2022-07-10T05:03:10;13.90;99.90
16999;DHT22;10211;49.476;11.010;2022-07-10T05:05:37;13.90;99.90
16999;DHT22;10211;49.476;11.010;2022-07-10T05:08:04;13.90;99.90
16999;DHT22;10211;49.476;11.010;2022-07-10T05:10:31;13.90;99.90
16999;DHT22;10211;49.476;11.010;2022-07-10T05:12:57;14.00;99.90
16999;DHT22;10211;49.476;11.010;2022-07-10T05:15:24;14.00;99.90
16999;DHT22;10211;49.476;11.010;2022-07-10T05:17:51;14.10;99.90
16999;DHT22;10211;49.476;11.010;2022-07-10T05:20:19;15.10;99.90
16999;DHT22;10211;49.476;11.010;2022-07-10T05:22:46;14.60;99.90
16999;DHT22;10211;49.476;11.010;2022-07-10T05:25:13;14.80;99.90
16999;DHT22;10211;49.476;11.010;2022-07-10T05:27:39;14.90;99.90
16999;DHT22;10211;49.476;11.010;2022-07-10T05:30:07;15.20;99.90
16999;DHT22;10211;49.476;11.010;2022-07-10T05:32:36;15.30;99.90
16999;DHT22;10211;49.476;11.010;2022-07-10T05:35:08;16.00;99.90
16999;DHT22;10211;49.476;11.010;2022-07-10T05:37:36;16.20;99.90
16999;DHT22;10211;49.476;11.010;2022-07-10T05:40:04;16.00;99.90
16999;DHT22;10211;49.476;11.010;2022-07-10T05:42:31;16.00;99.90
16999;DHT22;10211;49.476;11.010;2022-07-10T05:44:58;16.50;99.90
16999;DHT22;10211;49.476;11.010;2022-07-10T05:47:24;17.40;99.90
16999;DHT22;10211;49.476;11.010;2022-07-10T05:49:51;17.60;98.80
16999;DHT22;10211;49.476;11.010;2022-07-10T05:52:18;17.50;97.70
16999;DHT22;10211;49.476;11.010;2022-07-10T05:54:46;17.50;96.90
16999;DHT22;10211;49.476;11.010;2022-07-10T05:57:12;17.80;96.00
16999;DHT22;10211;49.476;11.010;2022-07-10T05:59:39;18.00;94.80
16999;DHT22;10211;49.476;11.010;2022-07-10T06:02:06;17.80;94.50
16999;DHT22;10211;49.476;11.010;2022-07-10T06:04:33;17.80;94.40
16999;DHT22;10211;49.476;11.010;2022-07-10T06:07:00;17.50;94.30
16999;DHT22;10211;49.476;11.010;2022-07-10T06:09:27;17.30;94.50
16999;DHT22;10211;49.476;11.010;2022-07-10T06:11:56;17.10;94.80
16999;DHT22;10211;49.476;11.010;2022-07-10T06:14:23;17.00;95.30
16999;DHT22;10211;49.476;11.010;2022-07-10T06:16:50;17.60;95.20
16999;DHT22;10211;49.476;11.010;2022-07-10T06:19:16;18.70;93.80
16999;DHT22;10211;49.476;11.010;2022-07-10T06:21:44;19.80;91.40
16999;DHT22;10211;49.476;11.010;2022-07-10T06:24:10;20.40;90.00
16999;DHT22;10211;49.476;11.010;2022-07-10T06:26:37;20.40;88.70
16999;DHT22;10211;49.476;11.010;2022-07-10T06:29:05;20.20;88.10
16999;DHT22;10211;49.476;11.010;2022-07-10T06:31:32;19.60;89.30
16999;DHT22;10211;49.476;11.010;2022-07-10T06:34:00;19.00;90.20
16999;DHT22;10211;49.476;11.010;2022-07-10T06:36:26;18.50;91.00
16999;DHT22;10211;49.476;11.010;2022-07-10T06:38:53;18.10;92.10
16999;DHT22;10211;49.476;11.010;2022-07-10T06:41:20;18.10;92.70
16999;DHT22;10211;49.476;11.010;2022-07-10T06:43:46;17.80;93.00
16999;DHT22;10211;49.476;11.010;2022-07-10T06:46:14;17.50;93.40
16999;DHT22;10211;49.476;11.010;2022-07-10T06:48:41;17.30;94.20
16999;DHT22;10211;49.476;11.010;2022-07-10T06:51:07;17.30;94.60
16999;DHT22;10211;49.476;11.010;2022-07-10T06:53:34;17.40;94.40
16999;DHT22;10211;49.476;11.010;2022-07-10T06:56:00;17.30;93.90
16999;DHT22;10211;49.476;11.010;2022-07-10T06:58:28;17.20;94.00
16999;DHT22;10211;49.476;11.010;2022-07-10T07:00:54;16.90;93.70
16999;DHT22;10211;49.476;11.010;2022-07-10T07:03:22;16.60;93.40
16999;DHT22;10211;49.476;11.010;2022-07-10T07:05:49;16.40;94.00
16999;DHT22;10211;49.476;11.010;2022-07-10T07:08:16;16.50;93.90
16999;DHT22;10211;49.476;11.010;2022-07-10T07:10:43;16.70;93.30
16999;DHT22;10211;49.476;11.010;2022-07-10T07:13:10;16.90;92.90
16999;DHT22;10211;49.476;11.010;2022-07-10T07:15:37;17.20;91.90
16999;DHT22;10211;49.476;11.010;2022-07-10T07:18:07;17.40;90.70
16999;DHT22;10211;49.476;11.010;2022-07-10T07:20:38;17.60;91.00
16999;DHT22;10211;49.476;11.010;2022-07-10T07:23:23;17.80;91.20
16999;DHT22;10211;49.476;11.010;2022-07-10T07:25:51;17.70;90.00
16999;DHT22;10211;49.476;11.010;2022-07-10T07:28:19;17.60;88.50
16999;DHT22;10211;49.476;11.010;2022-07-10T07:30:46;17.20;88.10
16999;DHT22;10211;49.476;11.010;2022-07-10T07:33:13;17.00;88.90
16999;DHT22;10211;49.476;11.010;2022-07-10T07:35:42;17.00;89.60
16999;DHT22;10211;49.476;11.010;2022-07-10T07:38:09;17.30;89.20
16999;DHT22;10211;49.476;11.010;2022-07-10T07:40:36;17.70;87.60
16999;DHT22;10211;49.476;11.010;2022-07-10T07:43:03;17.80;87.20
16999;DHT22;10211;49.476;11.010;2022-07-10T07:45:30;18.20;86.40
16999;DHT22;10211;49.476;11.010;2022-07-10T07:47:58;18.60;85.60
16999;DHT22;10211;49.476;11.010;2022-07-10T07:50:29;18.80;83.60
16999;DHT22;10211;49.476;11.010;2022-07-10T07:52:59;18.90;83.90
16999;DHT22;10211;49.476;11.010;2022-07-10T07:55:26;18.70;80.90
16999;DHT22;10211;49.476;11.010;2022-07-10T07:57:54;18.30;81.40
16999;DHT22;10211;49.476;11.010;2022-07-10T08:00:22;18.30;81.30
16999;DHT22;10211;49.476;11.010;2022-07-10T08:02:50;18.10;80.50
16999;DHT22;10211;49.476;11.010;2022-07-10T08:05:17;18.20;79.80
16999;DHT22;10211;49.476;11.010;2022-07-10T08:07:46;18.30;81.00
16999;DHT22;10211;49.476;11.010;2022-07-10T08:10:15;18.60;79.40
16999;DHT22;10211;49.476;11.010;2022-07-10T08:12:43;18.70;78.30
16999;DHT22;10211;49.476;11.010;2022-07-10T08:15:12;18.70;78.60
16999;DHT22;10211;49.476;11.010;2022-07-10T08:17:39;18.70;79.30
16999;DHT22;10211;49.476;11.010;2022-07-10T08:20:07;18.60;79.00
16999;DHT22;10211;49.476;11.010;2022-07-10T08:22:34;18.50;79.20
16999;DHT22;10211;49.476;11.010;2022-07-10T08:25:01;18.30;79.10
16999;DHT22;10211;49.476;11.010;2022-07-10T08:27:29;18.50;78.80
16999;DHT22;10211;49.476;11.010;2022-07-10T08:29:56;18.30;78.90
16999;DHT22;10211;49.476;11.010;2022-07-10T08:32:23;18.20;79.50
16999;DHT22;10211;49.476;11.010;2022-07-10T08:34:49;18.20;79.50
16999;DHT22;10211;49.476;11.010;2022-07-10T08:37:16;18.30;80.40
16999;DHT22;10211;49.476;11.010;2022-07-10T08:39:44;18.20;79.30
16999;DHT22;10211;49.476;11.010;2022-07-10T08:42:11;18.30;79.90
16999;DHT22;10211;49.476;11.010;2022-07-10T08:44:40;18.70;78.70
16999;DHT22;10211;49.476;11.010;2022-07-10T08:47:06;19.00;77.40
16999;DHT22;10211;49.476;11.010;2022-07-10T08:49:33;19.30;76.80
16999;DHT22;10211;49.476;11.010;2022-07-10T08:52:04;19.40;75.90
16999;DHT22;10211;49.476;11.010;2022-07-10T08:54:32;19.20;76.60
16999;DHT22;10211;49.476;11.010;2022-07-10T08:57:01;18.80;77.20
16999;DHT22;10211;49.476;11.010;2022-07-10T08:59:29;18.70;77.60
16999;DHT22;10211;49.476;11.010;2022-07-10T09:01:58;18.80;77.30
16999;DHT22;10211;49.476;11.010;2022-07-10T09:04:26;18.90;77.30
16999;DHT22;10211;49.476;11.010;2022-07-10T09:06:54;19.20;76.00
16999;DHT22;10211;49.476;11.010;2022-07-10T09:09:21;19.60;75.20
16999;DHT22;10211;49.476;11.010;2022-07-10T09:11:55;19.70;73.00
16999;DHT22;10211;49.476;11.010;2022-07-10T09:14:22;19.70;73.30
16999;DHT22;10211;49.476;11.010;2022-07-10T09:16:51;19.80;73.80
16999;DHT22;10211;49.476;11.010;2022-07-10T09:19:21;19.80;73.80
16999;DHT22;10211;49.476;11.010;2022-07-10T09:21:50;19.90;73.50
16999;DHT22;10211;49.476;11.010;2022-07-10T09:24:17;20.10;72.70
16999;DHT22;10211;49.476;11.010;2022-07-10T09:26:58;20.10;72.30
16999;DHT22;10211;49.476;11.010;2022-07-10T09:29:26;20.00;71.90
16999;DHT22;10211;49.476;11.010;2022-07-10T09:31:54;20.20;72.20
16999;DHT22;10211;49.476;11.010;2022-07-10T09:34:37;20.50;72.60
16999;DHT22;10211;49.476;11.010;2022-07-10T09:37:17;20.80;71.30
16999;DHT22;10211;49.476;11.010;2022-07-10T09:39:51;21.40;70.20
16999;DHT22;10211;49.476;11.010;2022-07-10T09:42:27;21.90;68.20
16999;DHT22;10211;49.476;11.010;2022-07-10T09:45:14;21.80;67.80
16999;DHT22;10211;49.476;11.010;2022-07-10T09:47:42;21.90;68.50
16999;DHT22;10211;49.476;11.010;2022-07-10T09:50:22;23.00;66.70
16999;DHT22;10211;49.476;11.010;2022-07-10T09:52:51;24.40;63.60
16999;DHT22;10211;49.476;11.010;2022-07-10T09:55:19;25.60;60.70
16999;DHT22;10211;49.476;11.010;2022-07-10T09:57:55;26.50;58.60
16999;DHT22;10211;49.476;11.010;2022-07-10T10:00:23;26.00;57.50
16999;DHT22;10211;49.476;11.010;2022-07-10T10:02:55;25.40;59.10
16999;DHT22;10211;49.476;11.010;2022-07-10T10:05:30;24.60;60.10
16999;DHT22;10211;49.476;11.010;2022-07-10T10:08:00;23.70;61.00
16999;DHT22;10211;49.476;11.010;2022-07-10T10:10:29;22.90;62.80
16999;DHT22;10211;49.476;11.010;2022-07-10T10:12:59;22.30;64.90
16999;DHT22;10211;49.476;11.010;2022-07-10T10:15:29;21.80;67.30
16999;DHT22;10211;49.476;11.010;2022-07-10T10:17:58;21.20;67.80
16999;DHT22;10211;49.476;11.010;2022-07-10T10:20:27;20.40;69.00
16999;DHT22;10211;49.476;11.010;2022-07-10T10:23:04;20.00;71.00
16999;DHT22;10211;49.476;11.010;2022-07-10T10:25:33;19.60;71.00
16999;DHT22;10211;49.476;11.010;2022-07-10T10:28:01;19.20;72.50
16999;DHT22;10211;49.476;11.010;2022-07-10T10:30:29;19.20;72.90
16999;DHT22;10211;49.476;11.010;2022-07-10T10:32:56;19.30;73.90
16999;DHT22;10211;49.476;11.010;2022-07-10T10:35:52;19.40;73.70
16999;DHT22;10211;49.476;11.010;2022-07-10T10:38:18;19.70;74.20
16999;DHT22;10211;49.476;11.010;2022-07-10T10:40:45;20.00;72.90
16999;DHT22;10211;49.476;11.010;2022-07-10T10:43:17;19.90;72.90
16999;DHT22;10211;49.476;11.010;2022-07-10T10:45:44;19.90;72.90
16999;DHT22;10211;49.476;11.010;2022-07-10T10:48:13;20.10;72.90
16999;DHT22;10211;49.476;11.010;2022-07-10T10:50:41;20.20;72.20
16999;DHT22;10211;49.476;11.010;2022-07-10T10:53:18;20.40;72.50
16999;DHT22;10211;49.476;11.010;2022-07-10T10:56:23;21.00;71.20
16999;DHT22;10211;49.476;11.010;2022-07-10T10:58:50;21.40;70.10
16999;DHT22;10211;49.476;11.010;2022-07-10T11:01:26;21.70;69.70
16999;DHT22;10211;49.476;11.010;2022-07-10T11:04:15;22.00;67.70
16999;DHT22;10211;49.476;11.010;2022-07-10T11:06:44;21.70;68.40
16999;DHT22;10211;49.476;11.010;2022-07-10T11:09:26;21.30;68.70
16999;DHT22;10211;49.476;11.010;2022-07-10T11:12:03;20.50;70.00
16999;DHT22;10211;49.476;11.010;2022-07-10T11:14:32;19.90;71.80
16999;DHT22;10211;49.476;11.010;2022-07-10T11:16:59;19.90;72.20
16999;DHT22;10211;49.476;11.010;2022-07-10T11:19:27;19.90;72.50
16999;DHT22;10211;49.476;11.010;2022-07-10T11:22:11;19.80;72.80
16999;DHT22;10211;49.476;11.010;2022-07-10T11:24:49;19.60;73.60
16999;DHT22;10211;49.476;11.010;2022-07-10T11:27:29;19.50;74.60
16999;DHT22;10211;49.476;11.010;2022-07-10T11:30:00;19.30;74.60
16999;DHT22;10211;49.476;11.010;2022-07-10T11:32:28;19.30;75.20
16999;DHT22;10211;49.476;11.010;2022-07-10T11:34:55;19.40;75.30
16999;DHT22;10211;49.476;11.010;2022-07-10T11:37:22;19.20;74.80
16999;DHT22;10211;49.476;11.010;2022-07-10T11:40:07;19.40;74.30
16999;DHT22;10211;49.476;11.010;2022-07-10T11:42:47;19.70;73.70
16999;DHT22;10211;49.476;11.010;2022-07-10T11:45:23;19.80;74.40
16999;DHT22;10211;49.476;11.010;2022-07-10T11:47:50;20.20;73.10
16999;DHT22;10211;49.476;11.010;2022-07-10T11:50:17;20.50;72.50
16999;DHT22;10211;49.476;11.010;2022-07-10T11:52:45;20.60;72.40
16999;DHT22;10211;49.476;11.010;2022-07-10T11:55:18;20.80;72.10
16999;DHT22;10211;49.476;11.010;2022-07-10T11:57:45;21.20;70.80
16999;DHT22;10211;49.476;11.010;2022-07-10T12:00:21;21.90;68.80
16999;DHT22;10211;49.476;11.010;2022-07-10T12:02:49;22.00;67.00
16999;DHT22;10211;49.476;11.010;2022-07-10T12:05:33;22.40;66.60
16999;DHT22;10211;49.476;11.010;2022-07-10T12:08:00;22.70;65.80
16999;DHT22;10211;49.476;11.010;2022-07-10T12:10:28;23.10;65.80
16999;DHT22;10211;49.476;11.010;2022-07-10T12:13:06;23.60;65.70
16999;DHT22;10211;49.476;11.010;2022-07-10T12:15:34;24.90;61.90
16999;DHT22;10211;49.476;11.010;2022-07-10T12:18:03;25.60;60.30
16999;DHT22;10211;49.476;11.010;2022-07-10T12:20:30;25.10;59.30
16999;DHT22;10211;49.476;11.010;2022-07-10T12:22:58;24.60;59.80
16999;DHT22;10211;49.476;11.010;2022-07-10T12:25:25;23.90;61.20
16999;DHT22;10211;49.476;11.010;2022-07-10T12:27:57;23.20;61.50
16999;DHT22;10211;49.476;11.010;2022-07-10T12:30:37;22.30;62.70
16999;DHT22;10211;49.476;11.010;2022-07-10T12:33:08;21.60;64.60
16999;DHT22;10211;49.476;11.010;2022-07-10T12:35:50;21.50;64.90
16999;DHT22;10211;49.476;11.010;2022-07-10T12:38:18;21.30;65.80
16999;DHT22;10211;49.476;11.010;2022-07-10T12:40:44;21.00;66.80
16999;DHT22;10211;49.476;11.010;2022-07-10T12:43:12;20.80;67.80
16999;DHT22;10211;49.476;11.010;2022-07-10T12:46:07;20.40;66.80
16999;DHT22;10211;49.476;11.010;2022-07-10T12:48:34;20.50;67.20
16999;DHT22;10211;49.476;11.010;2022-07-10T12:51:19;20.60;66.60
16999;DHT22;10211;49.476;11.010;2022-07-10T12:53:46;20.80;66.30
16999;DHT22;10211;49.476;11.010;2022-07-10T12:56:29;21.00;66.70
16999;DHT22;10211;49.476;11.010;2022-07-10T12:58:57;21.00;66.80
16999;DHT22;10211;49.476;11.010;2022-07-10T13:01:25;20.80;67.30
16999;DHT22;10211;49.476;11.010;2022-07-10T13:03:58;20.60;67.20
16999;DHT22;10211;49.476;11.010;2022-07-10T13:06:29;20.40;68.00
16999;DHT22;10211;49.476;11.010;2022-07-10T13:08:56;20.40;68.20
16999;DHT22;10211;49.476;11.010;2022-07-10T13:11:23;20.50;68.60
16999;DHT22;10211;49.476;11.010;2022-07-10T13:13:50;20.70;68.60
16999;DHT22;10211;49.476;11.010;2022-07-10T13:16:18;20.80;66.70
16999;DHT22;10211;49.476;11.010;2022-07-10T13:18:45;21.00;65.60
16999;DHT22;10211;49.476;11.010;2022-07-10T13:21:12;21.50;65.60
16999;DHT22;10211;49.476;11.010;2022-07-10T13:23:39;21.70;63.90
16999;DHT22;10211;49.476;11.010;2022-07-10T13:26:08;21.60;64.50
16999;DHT22;10211;49.476;11.010;2022-07-10T13:28:34;21.40;65.20
16999;DHT22;10211;49.476;11.010;2022-07-10T13:31:01;21.40;65.70
16999;DHT22;10211;49.476;11.010;2022-07-10T13:33:29;21.10;65.90
16999;DHT22;10211;49.476;11.010;2022-07-10T13:35:59;21.00;66.90
16999;DHT22;10211;49.476;11.010;2022-07-10T13:38:27;20.80;67.80
16999;DHT22;10211;49.476;11.010;2022-07-10T13:40:53;20.70;67.60
16999;DHT22;10211;49.476;11.010;2022-07-10T13:43:20;20.70;67.70
16999;DHT22;10211;49.476;11.010;2022-07-10T13:45:52;20.80;67.40
16999;DHT22;10211;49.476;11.010;2022-07-10T13:48:19;21.00;67.20
16999;DHT22;10211;49.476;11.010;2022-07-10T13:50:47;21.30;66.70
16999;DHT22;10211;49.476;11.010;2022-07-10T13:53:15;21.50;66.00
16999;DHT22;10211;49.476;11.010;2022-07-10T13:55:42;21.50;66.20
16999;DHT22;10211;49.476;11.010;2022-07-10T13:58:09;21.60;66.70
16999;DHT22;10211;49.476;11.010;2022-07-10T14:00:36;21.70;66.20
16999;DHT22;10211;49.476;11.010;2022-07-10T14:03:05;21.80;66.40
16999;DHT22;10211;49.476;11.010;2022-07-10T14:05:33;21.80;65.60
16999;DHT22;10211;49.476;11.010;2022-07-10T14:08:01;21.80;65.30
16999;DHT22;10211;49.476;11.010;2022-07-10T14:10:28;22.10;65.30
16999;DHT22;10211;49.476;11.010;2022-07-10T14:12:55;22.00;65.00
16999;DHT22;10211;49.476;11.010;2022-07-10T14:15:22;21.80;65.10
16999;DHT22;10211;49.476;11.010;2022-07-10T14:17:49;21.60;65.90
16999;DHT22;10211;49.476;11.010;2022-07-10T14:20:17;21.50;66.30
16999;DHT22;10211;49.476;11.010;2022-07-10T14:22:43;21.30;66.20
16999;DHT22;10211;49.476;11.010;2022-07-10T14:25:12;21.20;67.50
16999;DHT22;10211;49.476;11.010;2022-07-10T14:27:39;21.20;66.20
16999;DHT22;10211;49.476;11.010;2022-07-10T14:30:07;21.40;65.60
16999;DHT22;10211;49.476;11.010;2022-07-10T14:32:34;21.70;64.80
16999;DHT22;10211;49.476;11.010;2022-07-10T14:35:01;21.90;65.40
16999;DHT22;10211;49.476;11.010;2022-07-10T14:37:28;21.80;65.10
16999;DHT22;10211;49.476;11.010;2022-07-10T14:39:54;21.70;65.30
16999;DHT22;10211;49.476;11.010;2022-07-10T14:42:22;21.70;65.30
16999;DHT22;10211;49.476;11.010;2022-07-10T14:44:49;22.00;65.30
16999;DHT22;10211;49.476;11.010;2022-07-10T14:47:15;22.30;64.20
16999;DHT22;10211;49.476;11.010;2022-07-10T14:49:42;22.10;64.90
16999;DHT22;10211;49.476;11.010;2022-07-10T14:52:09;21.80;65.30
16999;DHT22;10211;49.476;11.010;2022-07-10T14:54:35;21.40;65.90
16999;DHT22;10211;49.476;11.010;2022-07-10T14:57:03;21.30;66.30
16999;DHT22;10211;49.476;11.010;2022-07-10T14:59:33;21.20;66.90
16999;DHT22;10211;49.476;11.010;2022-07-10T15:01:59;21.10;67.00
16999;DHT22;10211;49.476;11.010;2022-07-10T15:04:26;21.10;67.60
16999;DHT22;10211;49.476;11.010;2022-07-10T15:06:53;21.20;68.00
16999;DHT22;10211;49.476;11.010;2022-07-10T15:09:19;21.80;66.90
16999;DHT22;10211;49.476;11.010;2022-07-10T15:11:46;22.10;65.60
16999;DHT22;10211;49.476;11.010;2022-07-10T15:14:13;21.70;65.70
16999;DHT22;10211;49.476;11.010;2022-07-10T15:16:41;21.40;66.60
16999;DHT22;10211;49.476;11.010;2022-07-10T15:19:08;21.20;67.10
16999;DHT22;10211;49.476;11.010;2022-07-10T15:21:36;21.00;66.50
16999;DHT22;10211;49.476;11.010;2022-07-10T15:24:03;21.00;66.50